createdAt,value
2018-08-31T14:34:22.349Z,1.50
2018-08-31T14:36:49.743Z,1.67
2018-08-31T14:39:17.179Z,1.40
2018-08-31T14:41:44.585Z,1.60
2018-08-31T14:44:12.012Z,1.43
2018-08-31T14:46:39.414Z,1.37
2018-08-31T14:49:06.836Z,1.70
2018-08-31T14:51:34.268Z,1.50
2018-08-31T14:54:01.704Z,1.60
2018-08-31T14:56:29.111Z,1.53
2018-08-31T14:58:56.533Z,1.47
2018-08-31T15:01:24.125Z,1.50
2018-08-31T15:03:51.555Z,1.33
2018-08-31T15:06:18.960Z,1.27
2018-08-31T15:08:46.401Z,1.67
2018-08-31T15:11:13.824Z,1.20
2018-08-31T15:13:41.225Z,1.30
2018-08-31T15:16:08.648Z,1.10
2018-08-31T15:18:36.049Z,1.30
2018-08-31T15:21:03.490Z,1.30
2018-08-31T15:23:30.926Z,1.40
2018-08-31T15:25:58.317Z,2.03
2018-08-31T15:28:25.768Z,1.40
2018-08-31T15:30:53.151Z,1.10
2018-08-31T15:33:20.551Z,1.40
2018-08-31T15:35:48.228Z,1.50
2018-08-31T15:38:15.637Z,1.03
2018-08-31T15:40:43.075Z,1.10
2018-08-31T15:43:10.481Z,1.27
2018-08-31T15:45:37.883Z,1.20
2018-08-31T15:48:05.322Z,1.33
2018-08-31T15:50:32.732Z,1.20
2018-08-31T15:53:00.137Z,1.20
2018-08-31T15:55:27.562Z,1.40
2018-08-31T15:57:54.970Z,1.17
2018-08-31T16:00:22.393Z,1.23
2018-08-31T16:02:49.832Z,1.70
2018-08-31T16:05:17.286Z,1.33
2018-08-31T16:07:44.687Z,1.33
2018-08-31T16:10:12.142Z,2.03
2018-08-31T16:12:39.548Z,1.40
2018-08-31T16:15:06.999Z,1.27
2018-08-31T16:17:34.425Z,1.27
2018-08-31T16:20:01.909Z,1.37
2018-08-31T16:22:29.335Z,1.40
2018-08-31T16:24:56.731Z,1.70
2018-08-31T16:27:24.251Z,1.30
2018-08-31T16:29:51.669Z,1.30
2018-08-31T16:32:19.095Z,1.40
2018-08-31T16:34:46.488Z,1.20
2018-08-31T16:37:13.913Z,1.20
2018-08-31T16:39:41.350Z,1.40
2018-08-31T16:42:08.779Z,1.30
2018-08-31T16:44:36.189Z,1.60
2018-08-31T16:47:03.624Z,1.30
2018-08-31T16:49:31.076Z,1.23
2018-08-31T16:51:58.486Z,1.57
2018-08-31T16:54:25.892Z,1.87
2018-08-31T16:56:53.287Z,1.40
2018-08-31T16:59:20.718Z,1.30
2018-08-31T17:01:48.129Z,1.40
2018-08-31T17:04:15.555Z,1.40
2018-08-31T17:06:42.967Z,1.43
2018-08-31T17:09:10.408Z,1.20
2018-08-31T17:11:37.792Z,1.37
2018-08-31T17:14:05.227Z,1.40
2018-08-31T17:16:32.652Z,1.30
2018-08-31T17:19:00.108Z,1.47
2018-08-31T17:21:27.528Z,1.70
2018-08-31T17:23:54.963Z,1.70
2018-08-31T17:26:22.369Z,1.57
2018-08-31T17:28:59.009Z,1.90
2018-08-31T17:31:26.406Z,1.20
2018-08-31T17:33:53.839Z,1.83
2018-08-31T17:36:23.884Z,1.50
2018-08-31T17:38:51.310Z,1.37
2018-08-31T17:41:18.740Z,1.40
2018-08-31T17:43:46.213Z,1.60
2018-08-31T17:46:16.165Z,1.80
2018-08-31T17:48:43.539Z,2.03
2018-08-31T17:51:10.954Z,1.90
2018-08-31T17:53:38.376Z,2.33
2018-08-31T17:56:09.069Z,2.70
2018-08-31T17:58:36.511Z,2.40
2018-08-31T18:01:03.896Z,2.00
2018-08-31T18:03:31.370Z,2.50
2018-08-31T18:05:58.773Z,2.50
2018-08-31T18:08:26.202Z,1.90
2018-08-31T18:10:53.680Z,4.70
2018-08-31T18:13:21.097Z,3.33
2018-08-31T18:15:48.581Z,3.00
2018-08-31T18:18:15.973Z,2.77
2018-08-31T18:20:43.394Z,2.00
2018-08-31T18:23:10.843Z,2.33
2018-08-31T18:25:38.245Z,2.40
2018-08-31T18:28:05.640Z,2.20
2018-08-31T18:30:33.085Z,2.47
2018-08-31T18:33:00.512Z,1.90
2018-08-31T18:35:27.945Z,1.60
2018-08-31T18:37:55.367Z,2.03
2018-08-31T18:40:22.779Z,1.70
2018-08-31T18:42:50.207Z,1.90
2018-08-31T18:45:17.609Z,1.90
2018-08-31T18:47:45.043Z,1.57
2018-08-31T18:50:12.453Z,1.90
2018-08-31T18:52:39.893Z,1.80
2018-08-31T18:55:07.344Z,2.53
2018-08-31T18:57:34.788Z,1.90
2018-08-31T19:00:02.199Z,1.87
2018-08-31T19:02:29.654Z,1.93
2018-08-31T19:04:57.077Z,2.13
2018-08-31T19:07:24.501Z,2.47
2018-08-31T19:09:51.925Z,2.20
2018-08-31T19:12:19.484Z,2.37
2018-08-31T19:14:46.884Z,3.27
2018-08-31T19:17:14.348Z,3.30
2018-08-31T19:19:41.866Z,2.70
2018-08-31T19:22:09.256Z,2.80
2018-08-31T19:24:36.670Z,2.90
2018-08-31T19:27:04.113Z,2.70
2018-08-31T19:29:31.534Z,2.50
2018-08-31T19:31:59.016Z,4.57
2018-08-31T19:34:26.424Z,5.03
2018-08-31T19:36:53.841Z,3.73
2018-08-31T19:39:21.239Z,3.33
2018-08-31T19:41:48.676Z,2.87
2018-08-31T19:44:16.116Z,2.40
2018-08-31T19:46:43.553Z,2.27
2018-08-31T19:49:12.665Z,2.00
2018-08-31T19:51:40.111Z,2.13
2018-08-31T19:54:07.669Z,1.70
2018-08-31T19:56:35.047Z,2.00
2018-08-31T19:59:02.478Z,2.00
2018-08-31T20:01:29.909Z,2.00
2018-08-31T20:03:57.344Z,1.70
2018-08-31T20:06:24.821Z,1.80
2018-08-31T20:08:52.230Z,2.10
2018-08-31T20:11:19.679Z,1.90
2018-08-31T20:13:47.183Z,2.00
2018-08-31T20:16:14.568Z,2.07
2018-08-31T20:18:43.300Z,2.10
2018-08-31T20:21:09.417Z,1.90
2018-08-31T20:23:36.880Z,2.40
2018-08-31T20:26:04.307Z,2.03
2018-08-31T20:28:31.753Z,1.90
2018-08-31T20:30:59.265Z,2.50
2018-08-31T20:33:26.605Z,1.90
2018-08-31T20:35:54.015Z,2.20
2018-08-31T20:38:21.464Z,2.23
2018-08-31T20:40:48.872Z,2.30
2018-08-31T20:43:16.360Z,2.60
2018-08-31T20:45:44.014Z,2.87
2018-08-31T20:48:11.505Z,2.43
2018-08-31T20:50:38.926Z,2.53
2018-08-31T20:53:06.484Z,2.33
2018-08-31T20:55:34.217Z,2.73
2018-08-31T20:58:01.655Z,2.63
2018-08-31T21:00:29.095Z,2.47
2018-08-31T21:02:59.333Z,2.50
2018-08-31T21:05:26.862Z,2.73
2018-08-31T21:07:54.298Z,2.93
2018-08-31T21:10:21.736Z,2.50
2018-08-31T21:12:49.136Z,2.30
2018-08-31T21:15:16.617Z,3.37
2018-08-31T21:17:44.024Z,2.67
2018-08-31T21:20:11.455Z,2.80
2018-08-31T21:22:38.896Z,3.13
2018-08-31T21:25:06.337Z,2.93
2018-08-31T21:27:33.757Z,3.13
2018-08-31T21:30:01.191Z,2.77
2018-08-31T21:32:28.606Z,2.60
2018-08-31T21:34:56.056Z,2.30
2018-08-31T21:37:23.481Z,2.40
2018-08-31T21:39:50.897Z,3.13
2018-08-31T21:42:18.301Z,2.53
2018-08-31T21:44:45.865Z,2.70
2018-08-31T21:47:13.301Z,3.20
2018-08-31T21:49:40.714Z,2.67
2018-08-31T21:52:08.148Z,2.70
2018-08-31T21:54:35.571Z,2.70
2018-08-31T21:57:03.028Z,2.90
2018-08-31T21:59:30.457Z,2.87
2018-08-31T22:01:57.888Z,3.17
2018-08-31T22:04:25.307Z,3.00
2018-08-31T22:06:52.740Z,2.87
2018-08-31T22:09:20.151Z,2.87
2018-08-31T22:11:47.604Z,2.70
2018-08-31T22:14:15.019Z,2.87
2018-08-31T22:16:42.521Z,2.80
2018-08-31T22:19:09.950Z,2.90
2018-08-31T22:21:37.355Z,3.17
2018-08-31T22:24:05.895Z,3.63
2018-08-31T22:26:33.346Z,3.07
2018-08-31T22:29:00.786Z,3.93
2018-08-31T22:31:28.244Z,3.10
2018-08-31T22:33:55.677Z,3.23
2018-08-31T22:36:23.121Z,2.60
2018-08-31T22:38:50.555Z,3.90
2018-08-31T22:41:18.007Z,3.80
2018-08-31T22:43:45.458Z,3.00
2018-08-31T22:46:12.957Z,2.90
2018-08-31T22:48:40.364Z,3.03
2018-08-31T22:51:07.788Z,2.67
2018-08-31T22:53:35.239Z,3.03
2018-08-31T22:56:02.667Z,2.80
2018-08-31T22:58:30.099Z,3.10
2018-08-31T23:00:57.506Z,3.30
2018-08-31T23:03:24.942Z,2.50
2018-08-31T23:05:52.369Z,2.90
2018-08-31T23:08:19.796Z,3.00
2018-08-31T23:10:47.199Z,2.50
2018-08-31T23:13:14.676Z,3.00
2018-08-31T23:15:42.056Z,2.90
2018-08-31T23:18:09.470Z,3.20
2018-08-31T23:20:36.907Z,3.80
2018-08-31T23:23:04.354Z,3.57
2018-08-31T23:25:31.761Z,3.40
2018-08-31T23:27:59.201Z,4.50
2018-08-31T23:30:26.617Z,3.33
2018-08-31T23:32:54.043Z,4.30
2018-08-31T23:35:21.472Z,3.70
2018-08-31T23:37:48.912Z,4.60
2018-08-31T23:40:16.360Z,3.60
2018-08-31T23:42:43.785Z,4.10
2018-08-31T23:45:11.182Z,5.27
2018-08-31T23:47:38.609Z,5.30
2018-08-31T23:50:06.042Z,5.53
2018-08-31T23:52:33.456Z,4.67
2018-08-31T23:55:00.873Z,5.40
2018-08-31T23:57:28.306Z,5.17
2018-08-31T23:59:55.713Z,4.20
